Time;durP1;ratioP1;P1;durP2;ratioP2;P2;SDS_P1;SDS_P2;PMS_P1;PMS_P2;Temp;Humidity;BMP_temperature;BMP_pressure;BME280_temperature;BME280_humidity;BME280_pressure;Samples;Min_cycle;Max_cycle;Signal;HPM_P1;HPM_P2
2023/09/22 00:02:14;;;;;;;17.27;12.52;;;;;;;;;;5063339;28;20106;-57
2023/09/22 00:04:40;;;;;;;20.50;13.45;;;;;;;;;;5068009;28;20036;-57
2023/09/22 00:07:07;;;;;;;18.63;13.23;;;;;;;;;;5066301;28;20055;-57
2023/09/22 00:09:33;;;;;;;18.83;12.82;;;;;;;;;;5064332;28;20369;-57
2023/09/22 00:12:01;;;;;;;23.52;14.10;;;;;;;;;;5061715;28;20147;-57
2023/09/22 00:14:27;;;;;;;18.95;13.18;;;;;;;;;;5069202;28;20048;-57
2023/09/22 00:16:53;;;;;;;22.10;12.60;;;;;;;;;;5071782;28;20039;-57
2023/09/22 00:19:20;;;;;;;17.77;12.25;;;;;;;;;;5071512;28;20122;-57
2023/09/22 00:21:46;;;;;;;19.65;12.13;;;;;;;;;;5072365;28;20041;-57
2023/09/22 00:24:14;;;;;;;22.00;13.75;;;;;;;;;;5072118;28;20393;-57
2023/09/22 00:26:40;;;;;;;25.40;16.35;;;;;;;;;;5069169;28;20465;-57
2023/09/22 00:29:06;;;;;;;26.75;15.00;;;;;;;;;;5071994;28;20083;-57
2023/09/22 00:31:33;;;;;;;27.75;14.57;;;;;;;;;;5067636;28;20052;-57
2023/09/22 00:33:59;;;;;;;28.23;15.50;;;;;;;;;;5068949;28;20456;-57
2023/09/22 00:36:25;;;;;;;29.92;15.75;;;;;;;;;;5071045;28;20055;-57
2023/09/22 00:38:52;;;;;;;26.90;14.60;;;;;;;;;;5065859;28;20078;-57
2023/09/22 00:41:18;;;;;;;25.35;15.18;;;;;;;;;;5067972;28;20132;-57
2023/09/22 00:43:44;;;;;;;26.40;15.20;;;;;;;;;;5068993;28;20071;-57
2023/09/22 00:46:12;;;;;;;25.25;14.23;;;;;;;;;;5062970;28;20400;-57
2023/09/22 00:48:40;;;;;;;27.13;15.18;;;;;;;;;;5062826;28;20174;-57
2023/09/22 00:51:06;;;;;;;25.58;15.18;;;;;;;;;;5065540;28;20045;-57
2023/09/22 00:53:34;;;;;;;25.73;15.35;;;;;;;;;;5068261;28;20642;-57
2023/09/22 00:56:01;;;;;;;24.73;14.93;;;;;;;;;;5060773;28;20126;-57
2023/09/22 00:58:27;;;;;;;24.27;14.55;;;;;;;;;;5069615;28;20052;-57
2023/09/22 01:00:54;;;;;;;23.63;15.13;;;;;;;;;;5070571;28;20028;-57
2023/09/22 01:03:21;;;;;;;27.55;15.07;;;;;;;;;;5069696;28;20123;-57
2023/09/22 01:05:47;;;;;;;26.58;15.27;;;;;;;;;;5073130;28;20048;-57
2023/09/22 01:08:14;;;;;;;27.35;14.63;;;;;;;;;;5068829;28;20039;-57
2023/09/22 01:10:42;;;;;;;26.45;15.68;;;;;;;;;;5067367;28;20108;-57
2023/09/22 01:13:08;;;;;;;28.73;15.75;;;;;;;;;;5060020;28;20044;-57
2023/09/22 01:15:36;;;;;;;26.80;16.40;;;;;;;;;;5068715;28;20056;-57
2023/09/22 01:18:04;;;;;;;29.65;16.08;;;;;;;;;;5062102;28;20063;-57
2023/09/22 01:20:30;;;;;;;27.92;16.90;;;;;;;;;;5058268;28;20421;-57
2023/09/22 01:22:57;;;;;;;28.58;15.63;;;;;;;;;;5064273;28;20036;-57
2023/09/22 01:25:23;;;;;;;27.75;15.82;;;;;;;;;;5069614;28;20471;-57
2023/09/22 01:27:50;;;;;;;27.08;16.77;;;;;;;;;;5059218;28;20067;-57
2023/09/22 01:30:16;;;;;;;31.05;16.50;;;;;;;;;;5054132;28;20375;-57
2023/09/22 01:32:42;;;;;;;27.83;15.57;;;;;;;;;;5065946;28;20033;-57
2023/09/22 01:35:09;;;;;;;29.77;16.70;;;;;;;;;;5069384;28;20090;-57
2023/09/22 01:37:37;;;;;;;27.27;15.30;;;;;;;;;;5061410;28;20510;-57
2023/09/22 01:40:03;;;;;;;29.45;16.23;;;;;;;;;;5069860;28;20131;-57
2023/09/22 01:42:29;;;;;;;28.23;15.25;;;;;;;;;;5054079;28;20461;-57
2023/09/22 01:44:55;;;;;;;25.30;15.40;;;;;;;;;;5060152;28;20535;-57
2023/09/22 01:47:22;;;;;;;23.33;14.35;;;;;;;;;;5069532;28;20166;-57
2023/09/22 01:49:48;;;;;;;25.63;14.90;;;;;;;;;;5064476;28;20460;-57
2023/09/22 01:52:14;;;;;;;26.40;15.27;;;;;;;;;;5069202;28;20052;-57
2023/09/22 01:54:40;;;;;;;26.45;16.38;;;;;;;;;;5070308;28;20032;-57
2023/09/22 01:57:07;;;;;;;29.95;16.58;;;;;;;;;;5069465;28;20044;-56
2023/09/22 01:59:33;;;;;;;27.25;16.38;;;;;;;;;;5070258;28;20044;-56
2023/09/22 02:02:00;;;;;;;24.63;16.50;;;;;;;;;;5069283;28;20502;-57
2023/09/22 02:04:28;;;;;;;23.30;15.40;;;;;;;;;;5066001;28;20048;-57
2023/09/22 02:06:54;;;;;;;25.65;14.55;;;;;;;;;;5070555;28;20419;-57
2023/09/22 02:09:21;;;;;;;24.25;15.10;;;;;;;;;;5069779;28;20032;-57
2023/09/22 02:11:47;;;;;;;26.52;16.00;;;;;;;;;;5067293;28;20060;-57
2023/09/22 02:14:13;;;;;;;27.05;14.48;;;;;;;;;;5050726;28;20241;-57
2023/09/22 02:16:40;;;;;;;29.35;16.17;;;;;;;;;;5059456;28;20044;-57
2023/09/22 02:19:06;;;;;;;25.33;15.05;;;;;;;;;;5065000;28;20040;-57
2023/09/22 02:21:32;;;;;;;27.45;15.93;;;;;;;;;;5069392;28;20072;-57
2023/09/22 02:23:59;;;;;;;27.90;15.25;;;;;;;;;;5067842;28;20040;-57
2023/09/22 02:26:26;;;;;;;26.83;14.98;;;;;;;;;;5069803;28;20093;-57
2023/09/22 02:28:52;;;;;;;23.27;14.57;;;;;;;;;;5069055;28;20071;-57
2023/09/22 02:31:20;;;;;;;29.75;14.32;;;;;;;;;;5071535;28;20040;-57
2023/09/22 02:33:48;;;;;;;27.63;15.88;;;;;;;;;;5069629;28;20354;-57
2023/09/22 02:36:16;;;;;;;26.35;15.25;;;;;;;;;;5066455;28;20200;-57
2023/09/22 02:38:43;;;;;;;30.40;16.90;;;;;;;;;;5067615;28;20036;-57
2023/09/22 02:41:10;;;;;;;28.38;15.32;;;;;;;;;;5060940;28;20441;-57
2023/09/22 02:43:36;;;;;;;31.38;16.95;;;;;;;;;;5067655;28;20091;-57
2023/09/22 02:46:05;;;;;;;31.58;15.85;;;;;;;;;;5067402;28;20040;-57
2023/09/22 02:48:31;;;;;;;33.03;16.25;;;;;;;;;;5069157;28;20060;-57
2023/09/22 02:50:57;;;;;;;28.83;15.25;;;;;;;;;;5066202;28;20093;-57
2023/09/22 02:53:24;;;;;;;31.67;15.60;;;;;;;;;;5062285;28;20070;-57
2023/09/22 02:55:50;;;;;;;25.52;13.77;;;;;;;;;;5070399;28;20045;-57
2023/09/22 02:58:16;;;;;;;23.88;14.02;;;;;;;;;;5068633;28;20116;-57
2023/09/22 03:00:44;;;;;;;20.85;12.60;;;;;;;;;;5063935;28;20048;-57
2023/09/22 03:03:11;;;;;;;23.92;13.75;;;;;;;;;;5063252;28;20063;-57
2023/09/22 03:05:37;;;;;;;50.25;15.10;;;;;;;;;;5068135;28;20053;-57
2023/09/22 03:08:04;;;;;;;131.88;16.52;;;;;;;;;;5061184;28;20459;-57
2023/09/22 03:10:33;;;;;;;117.20;15.55;;;;;;;;;;5068556;28;20051;-57
2023/09/22 03:12:59;;;;;;;107.50;14.60;;;;;;;;;;5059142;28;20181;-57
2023/09/22 03:15:26;;;;;;;121.15;14.50;;;;;;;;;;5069266;28;20076;-57
2023/09/22 03:17:52;;;;;;;92.50;12.38;;;;;;;;;;5060968;28;20041;-57
2023/09/22 03:20:18;;;;;;;109.25;12.27;;;;;;;;;;5064624;28;20400;-57
2023/09/22 03:22:45;;;;;;;81.38;11.82;;;;;;;;;;5063414;28;20561;-57
2023/09/22 03:25:12;;;;;;;114.22;13.95;;;;;;;;;;5069456;28;20136;-57
2023/09/22 03:27:38;;;;;;;138.25;13.63;;;;;;;;;;5066615;28;20072;-57
2023/09/22 03:30:06;;;;;;;159.40;13.85;;;;;;;;;;5059057;28;20045;-57
2023/09/22 03:32:33;;;;;;;90.88;13.30;;;;;;;;;;5069661;28;20037;-57
2023/09/22 03:35:00;;;;;;;54.10;11.52;;;;;;;;;;5066018;28;20037;-57
2023/09/22 03:37:28;;;;;;;47.30;11.93;;;;;;;;;;5068338;28;20048;-57
2023/09/22 03:39:55;;;;;;;85.45;11.57;;;;;;;;;;5067087;28;20044;-57
2023/09/22 03:42:22;;;;;;;20.52;10.45;;;;;;;;;;5062203;28;20044;-57
2023/09/22 03:44:48;;;;;;;15.30;9.80;;;;;;;;;;5063926;28;20514;-57
2023/09/22 03:47:14;;;;;;;12.20;8.40;;;;;;;;;;5065525;28;20183;-58
2023/09/22 03:49:41;;;;;;;14.43;8.50;;;;;;;;;;5068844;28;20048;-57
2023/09/22 03:52:07;;;;;;;13.20;7.38;;;;;;;;;;5071913;28;20056;-57
2023/09/22 03:54:34;;;;;;;12.48;7.90;;;;;;;;;;5071343;28;20040;-57
2023/09/22 03:57:00;;;;;;;9.70;6.40;;;;;;;;;;5066809;28;20113;-57
2023/09/22 03:59:27;;;;;;;11.23;6.90;;;;;;;;;;5072694;28;20052;-57
2023/09/22 04:01:54;;;;;;;14.23;7.00;;;;;;;;;;5072089;28;20060;-57
2023/09/22 04:04:20;;;;;;;11.05;6.80;;;;;;;;;;5071700;28;20044;-57
2023/09/22 04:06:46;;;;;;;9.50;6.72;;;;;;;;;;5071706;28;20084;-57
2023/09/22 04:09:12;;;;;;;13.70;8.77;;;;;;;;;;5071040;28;20502;-57
2023/09/22 04:11:38;;;;;;;13.02;8.00;;;;;;;;;;5072545;28;20057;-57
2023/09/22 04:14:05;;;;;;;13.10;7.93;;;;;;;;;;5063847;28;20105;-57
2023/09/22 04:16:31;;;;;;;14.25;8.35;;;;;;;;;;5071275;28;20040;-57
2023/09/22 04:18:58;;;;;;;17.50;9.70;;;;;;;;;;5068178;28;20117;-57
2023/09/22 04:21:24;;;;;;;19.13;10.48;;;;;;;;;;5071465;28;20124;-57
2023/09/22 04:23:57;;;;;;;18.67;10.63;;;;;;;;;;5066634;28;20037;-57
2023/09/22 04:26:27;;;;;;;23.17;12.73;;;;;;;;;;5061313;28;20520;-57
2023/09/22 04:28:55;;;;;;;21.58;11.88;;;;;;;;;;5065099;28;20089;-57
2023/09/22 04:31:23;;;;;;;22.52;12.60;;;;;;;;;;5071784;28;20045;-57
2023/09/22 04:33:49;;;;;;;21.90;13.20;;;;;;;;;;5066139;28;20044;-57
2023/09/22 04:36:15;;;;;;;21.05;13.80;;;;;;;;;;5064576;28;20044;-57
2023/09/22 04:38:44;;;;;;;23.33;13.77;;;;;;;;;;5069572;28;20340;-57
2023/09/22 04:41:11;;;;;;;26.60;14.80;;;;;;;;;;5063653;28;20052;-57
2023/09/22 04:43:37;;;;;;;27.42;14.93;;;;;;;;;;5070575;28;20115;-57
2023/09/22 04:46:03;;;;;;;25.95;15.57;;;;;;;;;;5069252;28;20041;-57
2023/09/22 04:48:30;;;;;;;26.98;16.50;;;;;;;;;;5065177;28;20055;-57
2023/09/22 04:50:56;;;;;;;33.05;16.88;;;;;;;;;;5072013;28;20050;-57
2023/09/22 04:53:24;;;;;;;26.90;15.38;;;;;;;;;;5066142;28;20392;-57
2023/09/22 04:55:58;;;;;;;31.00;16.23;;;;;;;;;;5071132;28;20044;-56
2023/09/22 04:58:24;;;;;;;33.63;16.23;;;;;;;;;;5070387;28;20076;-57
2023/09/22 05:00:55;;;;;;;28.88;16.00;;;;;;;;;;5067496;28;20448;-56
2023/09/22 05:03:22;;;;;;;29.27;16.67;;;;;;;;;;5055732;28;20110;-57
2023/09/22 05:05:48;;;;;;;34.70;18.20;;;;;;;;;;5061234;28;20067;-57
2023/09/22 05:08:15;;;;;;;35.05;17.38;;;;;;;;;;5071223;28;20044;-57
2023/09/22 05:10:41;;;;;;;32.60;17.77;;;;;;;;;;5068668;28;20128;-57
2023/09/22 05:13:07;;;;;;;33.72;17.52;;;;;;;;;;5066204;28;20032;-57
2023/09/22 05:15:33;;;;;;;31.17;17.77;;;;;;;;;;5068474;28;20146;-57
2023/09/22 05:17:59;;;;;;;35.42;18.67;;;;;;;;;;5068919;28;20094;-58
2023/09/22 05:20:26;;;;;;;39.80;18.83;;;;;;;;;;5070750;28;20075;-57
2023/09/22 05:22:52;;;;;;;45.53;20.98;;;;;;;;;;5064324;28;20040;-58
2023/09/22 05:25:18;;;;;;;44.53;21.25;;;;;;;;;;5068394;28;20119;-58
2023/09/22 05:27:45;;;;;;;46.50;22.85;;;;;;;;;;5068994;28;20060;-57
2023/09/22 05:30:13;;;;;;;57.00;24.25;;;;;;;;;;5067284;28;20040;-57
2023/09/22 05:32:39;;;;;;;48.22;22.75;;;;;;;;;;5067919;28;20455;-58
2023/09/22 05:35:05;;;;;;;51.40;23.65;;;;;;;;;;5065959;28;20071;-58
2023/09/22 05:37:31;;;;;;;60.58;25.33;;;;;;;;;;5065401;28;20037;-58
2023/09/22 05:39:58;;;;;;;52.25;24.48;;;;;;;;;;5061510;28;20090;-58
2023/09/22 05:42:24;;;;;;;62.78;25.42;;;;;;;;;;5061085;28;20032;-58
2023/09/22 05:44:50;;;;;;;51.55;24.10;;;;;;;;;;5063189;28;20519;-58
2023/09/22 05:47:18;;;;;;;54.05;24.17;;;;;;;;;;5064278;28;20043;-58
2023/09/22 05:49:44;;;;;;;48.92;24.13;;;;;;;;;;5061713;28;20072;-58
2023/09/22 05:52:11;;;;;;;53.58;24.13;;;;;;;;;;5062942;28;20041;-58
2023/09/22 05:54:37;;;;;;;50.45;23.02;;;;;;;;;;5065748;28;20047;-58
2023/09/22 05:57:04;;;;;;;45.35;22.48;;;;;;;;;;5062307;28;20040;-58
2023/09/22 05:59:30;;;;;;;43.33;22.17;;;;;;;;;;5063256;28;20360;-58
2023/09/22 06:01:57;;;;;;;40.35;21.13;;;;;;;;;;5063480;28;20079;-58
2023/09/22 06:04:24;;;;;;;46.35;22.63;;;;;;;;;;5061528;28;20078;-58
2023/09/22 06:06:50;;;;;;;42.47;21.30;;;;;;;;;;5064061;28;20127;-58
2023/09/22 06:09:17;;;;;;;44.33;22.30;;;;;;;;;;5062274;28;21523;-58
2023/09/22 06:11:44;;;;;;;42.35;21.48;;;;;;;;;;5060794;28;20052;-58
2023/09/22 06:14:12;;;;;;;47.40;24.30;;;;;;;;;;5062557;28;20056;-58
2023/09/22 06:16:38;;;;;;;48.30;24.30;;;;;;;;;;5062193;28;20040;-58
2023/09/22 06:19:04;;;;;;;48.80;24.92;;;;;;;;;;5060138;28;20076;-58
2023/09/22 06:21:31;;;;;;;50.70;26.67;;;;;;;;;;5061972;28;20120;-58
2023/09/22 06:23:58;;;;;;;51.10;26.50;;;;;;;;;;5061064;28;20041;-58
2023/09/22 06:26:24;;;;;;;49.70;25.85;;;;;;;;;;5061617;28;20161;-58
2023/09/22 06:28:50;;;;;;;54.45;26.40;;;;;;;;;;5061680;28;20072;-58
2023/09/22 06:31:16;;;;;;;60.33;28.40;;;;;;;;;;5060940;28;20771;-58
2023/09/22 06:33:44;;;;;;;48.47;25.33;;;;;;;;;;5062995;28;20037;-58
2023/09/22 06:36:10;;;;;;;51.30;24.98;;;;;;;;;;5093407;28;20093;-58
2023/09/22 06:38:36;;;;;;;52.78;25.60;;;;;;;;;;5062488;28;20138;-58
2023/09/22 06:41:03;;;;;;;54.17;27.10;;;;;;;;;;5060106;28;20136;-58
2023/09/22 06:43:29;;;;;;;57.55;24.88;;;;;;;;;;5060804;28;20040;-58
2023/09/22 06:45:58;;;;;;;62.42;27.48;;;;;;;;;;5060400;28;20040;-58
2023/09/22 06:48:29;;;;;;;63.42;27.13;;;;;;;;;;5062531;28;20060;-58
2023/09/22 06:50:57;;;;;;;58.03;26.58;;;;;;;;;;5061195;28;20070;-58
2023/09/22 06:53:26;;;;;;;59.92;27.58;;;;;;;;;;5061266;28;20440;-58
2023/09/22 06:56:09;;;;;;;60.90;27.75;;;;;;;;;;5063231;28;20040;-58
2023/09/22 06:58:36;;;;;;;65.55;28.48;;;;;;;;;;5061037;28;20045;-58
2023/09/22 07:01:12;;;;;;;53.97;26.83;;;;;;;;;;5059927;28;20461;-58
2023/09/22 07:03:38;;;;;;;53.35;26.45;;;;;;;;;;5064351;28;20425;-58
2023/09/22 07:06:07;;;;;;;54.22;27.33;;;;;;;;;;5062933;28;20041;-58
2023/09/22 07:08:34;;;;;;;50.17;26.73;;;;;;;;;;5062887;28;20100;-58
2023/09/22 07:11:01;;;;;;;50.22;26.17;;;;;;;;;;5061129;28;20429;-58
2023/09/22 07:13:28;;;;;;;53.53;26.08;;;;;;;;;;5061322;28;20037;-58
2023/09/22 07:15:54;;;;;;;48.78;25.45;;;;;;;;;;5059093;28;20165;-58
2023/09/22 07:18:21;;;;;;;49.78;25.20;;;;;;;;;;5061062;28;20037;-58
2023/09/22 07:20:49;;;;;;;47.85;25.48;;;;;;;;;;5062830;28;20041;-58
2023/09/22 07:23:15;;;;;;;49.78;23.83;;;;;;;;;;5059610;28;20105;-57
2023/09/22 07:25:41;;;;;;;40.53;22.98;;;;;;;;;;5070439;28;20206;-57
2023/09/22 07:28:08;;;;;;;42.80;22.30;;;;;;;;;;5057375;28;20045;-57
2023/09/22 07:30:34;;;;;;;39.80;22.42;;;;;;;;;;5061021;28;20044;-58
2023/09/22 07:33:01;;;;;;;38.50;22.88;;;;;;;;;;5061286;28;20045;-57
2023/09/22 07:35:27;;;;;;;46.70;21.92;;;;;;;;;;5061904;28;20091;-58
2023/09/22 07:37:53;;;;;;;34.22;21.02;;;;;;;;;;5062441;28;20405;-58
2023/09/22 07:40:19;;;;;;;39.75;21.13;;;;;;;;;;5060772;28;20037;-58
2023/09/22 07:42:46;;;;;;;34.65;20.85;;;;;;;;;;5063319;28;20052;-58
2023/09/22 07:45:12;;;;;;;37.10;19.95;;;;;;;;;;5066690;28;20441;-58
2023/09/22 07:47:39;;;;;;;41.63;21.42;;;;;;;;;;5063290;28;20459;-57
2023/09/22 07:50:06;;;;;;;36.17;20.75;;;;;;;;;;5059674;28;20477;-58
2023/09/22 07:52:33;;;;;;;35.20;21.10;;;;;;;;;;5063076;28;20041;-58
2023/09/22 07:55:00;;;;;;;33.83;20.42;;;;;;;;;;5061924;28;20048;-58
2023/09/22 07:57:31;;;;;;;32.50;20.45;;;;;;;;;;5067764;28;20349;-57
2023/09/22 08:00:00;;;;;;;32.40;18.88;;;;;;;;;;5069805;28;20515;-58
2023/09/22 08:02:26;;;;;;;30.15;19.25;;;;;;;;;;5069380;28;20040;-58
2023/09/22 08:04:52;;;;;;;26.95;17.33;;;;;;;;;;5067497;28;20045;-60
2023/09/22 08:07:18;;;;;;;29.00;18.13;;;;;;;;;;5067196;28;20052;-60
2023/09/22 08:09:44;;;;;;;25.58;17.23;;;;;;;;;;5069298;28;20480;-60
2023/09/22 08:12:11;;;;;;;26.80;16.98;;;;;;;;;;5070398;28;20065;-60
2023/09/22 08:14:37;;;;;;;24.13;16.02;;;;;;;;;;5069792;28;20036;-60
2023/09/22 08:17:07;;;;;;;23.40;15.43;;;;;;;;;;5068473;28;20420;-60
2023/09/22 08:19:33;;;;;;;27.23;15.75;;;;;;;;;;5070032;28;20062;-60
2023/09/22 08:22:00;;;;;;;23.83;15.52;;;;;;;;;;5069987;28;20392;-60
2023/09/22 08:24:26;;;;;;;23.42;15.68;;;;;;;;;;5068392;28;20217;-60
2023/09/22 08:26:52;;;;;;;21.05;14.40;;;;;;;;;;5068449;28;20044;-60
2023/09/22 08:29:19;;;;;;;18.98;13.25;;;;;;;;;;5069931;28;20041;-60
2023/09/22 08:31:45;;;;;;;21.50;12.00;;;;;;;;;;5069231;28;20059;-60
2023/09/22 08:34:11;;;;;;;21.10;12.77;;;;;;;;;;5069832;28;20124;-60
2023/09/22 08:36:37;;;;;;;18.75;12.02;;;;;;;;;;5073404;28;20483;-60
2023/09/22 08:39:04;;;;;;;14.95;11.77;;;;;;;;;;5072325;28;20045;-60
2023/09/22 08:41:32;;;;;;;16.90;11.73;;;;;;;;;;5072737;28;20127;-60
2023/09/22 08:43:59;;;;;;;20.45;12.05;;;;;;;;;;5073435;28;20051;-60
2023/09/22 08:46:26;;;;;;;16.05;11.35;;;;;;;;;;5072293;28;20407;-60
2023/09/22 08:48:52;;;;;;;17.98;10.90;;;;;;;;;;5073151;28;20055;-60
2023/09/22 08:51:18;;;;;;;14.60;10.15;;;;;;;;;;5073124;28;20139;-60
2023/09/22 08:53:45;;;;;;;14.63;9.68;;;;;;;;;;5072576;28;20033;-60
2023/09/22 08:56:12;;;;;;;14.32;9.88;;;;;;;;;;5073350;28;20090;-60
2023/09/22 08:58:38;;;;;;;14.45;9.85;;;;;;;;;;5071636;28;20062;-60
2023/09/22 09:01:04;;;;;;;12.82;9.60;;;;;;;;;;5058612;28;20467;-60
2023/09/22 09:03:33;;;;;;;11.90;8.60;;;;;;;;;;5074045;28;20349;-60
2023/09/22 09:06:06;;;;;;;10.77;7.43;;;;;;;;;;5071923;28;20373;-60
2023/09/22 09:08:34;;;;;;;12.75;7.68;;;;;;;;;;5073145;28;20045;-60
2023/09/22 09:11:13;;;;;;;10.13;6.32;;;;;;;;;;5072699;28;20044;-60
2023/09/22 09:13:39;;;;;;;8.68;6.15;;;;;;;;;;5071440;28;20098;-60
2023/09/22 09:16:09;;;;;;;10.05;6.85;;;;;;;;;;5072586;28;20094;-60
2023/09/22 09:18:36;;;;;;;9.25;6.25;;;;;;;;;;5072077;28;20072;-60
2023/09/22 09:21:09;;;;;;;9.75;5.85;;;;;;;;;;5071760;28;20357;-60
2023/09/22 09:23:36;;;;;;;11.18;6.70;;;;;;;;;;5072842;28;20136;-60
2023/09/22 09:26:02;;;;;;;8.02;4.80;;;;;;;;;;5072443;28;20049;-60
2023/09/22 09:28:29;;;;;;;7.28;5.13;;;;;;;;;;5071699;28;20059;-60
2023/09/22 09:30:57;;;;;;;9.40;5.97;;;;;;;;;;5072266;28;20056;-60
2023/09/22 09:33:24;;;;;;;13.48;5.70;;;;;;;;;;5071104;28;20040;-60
2023/09/22 09:35:51;;;;;;;8.20;4.97;;;;;;;;;;5071150;28;20044;-60
2023/09/22 09:38:18;;;;;;;6.18;4.22;;;;;;;;;;5104809;28;20139;-60
2023/09/22 09:40:44;;;;;;;8.70;4.65;;;;;;;;;;5072340;28;20048;-60
2023/09/22 09:43:14;;;;;;;8.00;4.25;;;;;;;;;;5071362;28;20040;-60
2023/09/22 09:45:44;;;;;;;8.07;4.03;;;;;;;;;;5071357;28;20126;-60
2023/09/22 09:48:14;;;;;;;5.85;3.45;;;;;;;;;;5070364;28;20099;-60
2023/09/22 09:50:41;;;;;;;6.40;3.40;;;;;;;;;;5072156;28;20051;-60
2023/09/22 09:53:14;;;;;;;6.18;2.20;;;;;;;;;;5071940;28;20369;-60
2023/09/22 09:55:43;;;;;;;3.55;2.13;;;;;;;;;;5068145;28;20044;-60
2023/09/22 09:58:12;;;;;;;6.28;1.90;;;;;;;;;;5072989;28;20137;-60
2023/09/22 10:00:39;;;;;;;5.80;1.90;;;;;;;;;;5083488;28;20066;-60
2023/09/22 10:03:09;;;;;;;5.50;1.73;;;;;;;;;;5071764;28;20104;-67
2023/09/22 10:05:36;;;;;;;5.15;1.60;;;;;;;;;;5070650;28;20040;-60
2023/09/22 10:08:04;;;;;;;4.35;2.17;;;;;;;;;;5066797;28;20039;-60
2023/09/22 10:10:30;;;;;;;4.75;1.98;;;;;;;;;;5070859;28;20531;-60
2023/09/22 10:12:57;;;;;;;8.15;2.00;;;;;;;;;;5062486;28;20040;-60
2023/09/22 10:15:42;;;;;;;7.45;2.25;;;;;;;;;;5067289;28;20105;-60
2023/09/22 10:18:08;;;;;;;11.35;2.67;;;;;;;;;;5062108;28;20093;-60
2023/09/22 10:20:45;;;;;;;3.83;2.20;;;;;;;;;;5061262;28;20040;-60
2023/09/22 10:23:25;;;;;;;4.53;2.20;;;;;;;;;;5062030;28;20093;-60
2023/09/22 10:26:10;;;;;;;4.57;2.10;;;;;;;;;;5062777;28;20059;-60
2023/09/22 10:28:36;;;;;;;4.40;2.30;;;;;;;;;;5062358;28;20115;-60
2023/09/22 10:31:03;;;;;;;4.25;1.88;;;;;;;;;;5060290;28;20459;-60
2023/09/22 10:33:32;;;;;;;5.63;1.92;;;;;;;;;;5062052;28;20033;-60
2023/09/22 10:36:04;;;;;;;3.95;1.90;;;;;;;;;;5068126;28;20159;-60
2023/09/22 10:38:30;;;;;;;4.95;2.03;;;;;;;;;;5063910;28;20052;-60
2023/09/22 10:40:59;;;;;;;8.13;2.10;;;;;;;;;;5060240;28;20495;-60
2023/09/22 10:43:26;;;;;;;7.22;2.05;;;;;;;;;;5058125;28;20075;-60
2023/09/22 10:45:52;;;;;;;5.50;2.13;;;;;;;;;;5057850;28;20475;-59
2023/09/22 10:48:19;;;;;;;8.85;2.95;;;;;;;;;;5068919;28;20052;-60
2023/09/22 10:50:52;;;;;;;3.92;1.90;;;;;;;;;;5061303;28;20056;-60
2023/09/22 10:53:19;;;;;;;5.10;2.20;;;;;;;;;;5064958;28;20071;-60
2023/09/22 10:55:46;;;;;;;4.88;2.17;;;;;;;;;;5061386;28;20098;-59
2023/09/22 10:58:16;;;;;;;4.05;2.13;;;;;;;;;;5064263;28;20049;-61
2023/09/22 11:00:55;;;;;;;3.83;2.00;;;;;;;;;;5067723;28;20094;-61
2023/09/22 11:03:21;;;;;;;4.78;2.20;;;;;;;;;;5069863;28;20082;-61
2023/09/22 11:05:57;;;;;;;6.72;2.17;;;;;;;;;;5068534;28;20052;-61
2023/09/22 11:08:23;;;;;;;4.85;2.33;;;;;;;;;;5070813;28;20536;-60
2023/09/22 11:10:50;;;;;;;4.45;1.58;;;;;;;;;;5070506;28;20171;-60
2023/09/22 11:13:17;;;;;;;5.45;2.65;;;;;;;;;;5070196;28;20484;-60
2023/09/22 11:16:02;;;;;;;4.78;1.58;;;;;;;;;;5070109;28;20051;-60
2023/09/22 11:18:32;;;;;;;3.85;1.98;;;;;;;;;;5060583;28;20040;-60
2023/09/22 11:21:12;;;;;;;5.03;1.88;;;;;;;;;;5069841;28;20124;-60
2023/09/22 11:23:39;;;;;;;6.25;1.63;;;;;;;;;;5069988;28;20036;-60
2023/09/22 11:26:10;;;;;;;4.75;1.90;;;;;;;;;;5070462;28;20056;-60
2023/09/22 11:28:39;;;;;;;3.83;1.73;;;;;;;;;;5069032;28;20032;-60
2023/09/22 11:31:09;;;;;;;2.65;1.40;;;;;;;;;;5069391;28;20048;-60
2023/09/22 11:33:37;;;;;;;4.93;1.40;;;;;;;;;;5062256;28;20068;-60
2023/09/22 11:36:04;;;;;;;4.60;1.40;;;;;;;;;;5070243;28;20048;-60
2023/09/22 11:38:33;;;;;;;5.45;1.70;;;;;;;;;;5070349;28;20062;-60
2023/09/22 11:41:04;;;;;;;5.88;1.40;;;;;;;;;;5068208;28;20131;-60
2023/09/22 11:43:30;;;;;;;3.97;1.23;;;;;;;;;;5070357;28;20040;-60
2023/09/22 11:46:08;;;;;;;3.45;1.23;;;;;;;;;;5070048;28;20037;-60
2023/09/22 11:48:53;;;;;;;3.03;1.00;;;;;;;;;;5069598;28;20140;-60
2023/09/22 11:51:20;;;;;;;3.05;1.10;;;;;;;;;;5061533;28;20067;-61
2023/09/22 11:53:46;;;;;;;3.10;0.93;;;;;;;;;;5070508;28;20045;-61
2023/09/22 11:56:12;;;;;;;6.03;1.20;;;;;;;;;;5068494;28;20041;-60
2023/09/22 11:58:38;;;;;;;1.90;0.85;;;;;;;;;;5069293;28;20125;-61
2023/09/22 12:01:05;;;;;;;3.28;1.23;;;;;;;;;;5068448;28;20036;-60
2023/09/22 12:03:34;;;;;;;3.15;1.35;;;;;;;;;;5067664;28;20096;-62
2023/09/22 12:06:02;;;;;;;2.13;1.10;;;;;;;;;;5101608;28;20467;-62
2023/09/22 12:08:29;;;;;;;4.15;1.08;;;;;;;;;;5070256;28;20087;-64
2023/09/22 12:10:55;;;;;;;4.32;1.15;;;;;;;;;;5072554;28;20036;-60
2023/09/22 12:13:21;;;;;;;3.50;1.35;;;;;;;;;;5073924;28;20044;-60
2023/09/22 12:15:48;;;;;;;3.58;1.70;;;;;;;;;;5072463;28;20028;-60
2023/09/22 12:18:14;;;;;;;5.45;1.73;;;;;;;;;;5072883;28;20476;-61
2023/09/22 12:20:40;;;;;;;4.10;1.55;;;;;;;;;;5064974;28;20074;-60
2023/09/22 12:23:07;;;;;;;4.07;1.30;;;;;;;;;;5072162;28;20131;-60
2023/09/22 12:25:33;;;;;;;3.10;1.17;;;;;;;;;;5073914;28;20052;-60
2023/09/22 12:27:59;;;;;;;3.33;1.33;;;;;;;;;;5105477;28;20052;-60
2023/09/22 12:30:25;;;;;;;2.10;0.80;;;;;;;;;;5071988;28;20056;-60
2023/09/22 12:32:52;;;;;;;2.83;1.30;;;;;;;;;;5073263;28;20131;-60
2023/09/22 12:35:18;;;;;;;2.90;1.08;;;;;;;;;;5073688;28;20131;-60
2023/09/22 12:37:44;;;;;;;3.58;1.25;;;;;;;;;;5071602;28;20044;-60
2023/09/22 12:40:11;;;;;;;4.75;1.00;;;;;;;;;;5072756;28;20109;-60
2023/09/22 12:42:38;;;;;;;2.92;0.90;;;;;;;;;;5073382;28;20052;-60
2023/09/22 12:45:04;;;;;;;4.40;1.17;;;;;;;;;;5071938;28;20110;-61
2023/09/22 12:47:31;;;;;;;2.20;0.82;;;;;;;;;;5072755;28;20045;-60
2023/09/22 12:49:57;;;;;;;3.83;1.05;;;;;;;;;;5071318;28;20512;-60
2023/09/22 12:52:26;;;;;;;2.88;1.20;;;;;;;;;;5070640;28;20373;-60
2023/09/22 12:54:52;;;;;;;2.85;0.90;;;;;;;;;;5068274;28;20080;-60
2023/09/22 12:57:20;;;;;;;2.80;1.00;;;;;;;;;;5072312;28;20041;-61
2023/09/22 12:59:46;;;;;;;4.65;1.02;;;;;;;;;;5072708;28;20377;-60
2023/09/22 13:02:12;;;;;;;1.48;0.50;;;;;;;;;;5073125;28;20083;-60
2023/09/22 13:04:39;;;;;;;2.60;0.40;;;;;;;;;;5073019;28;20043;-60
2023/09/22 13:07:05;;;;;;;3.58;0.40;;;;;;;;;;5068608;28;20050;-59
2023/09/22 13:09:31;;;;;;;1.88;0.80;;;;;;;;;;5070778;28;20037;-60
2023/09/22 13:12:00;;;;;;;1.70;0.55;;;;;;;;;;5068488;28;20058;-60
2023/09/22 13:14:27;;;;;;;3.30;0.60;;;;;;;;;;5071027;28;20488;-60
2023/09/22 13:16:53;;;;;;;2.15;0.47;;;;;;;;;;5071404;28;20102;-60
2023/09/22 13:19:19;;;;;;;2.42;0.60;;;;;;;;;;5067125;28;20439;-60
2023/09/22 13:21:49;;;;;;;2.38;0.70;;;;;;;;;;5072392;28;20032;-60
2023/09/22 13:24:16;;;;;;;2.67;0.70;;;;;;;;;;5072565;28;20044;-60
2023/09/22 13:26:43;;;;;;;2.92;0.90;;;;;;;;;;5071784;28;20384;-60
2023/09/22 13:29:09;;;;;;;3.28;1.50;;;;;;;;;;5072617;28;20120;-60
2023/09/22 13:31:35;;;;;;;3.15;0.90;;;;;;;;;;5072224;28;20068;-60
2023/09/22 13:34:02;;;;;;;2.63;0.80;;;;;;;;;;5066568;28;20404;-60
2023/09/22 13:36:28;;;;;;;3.15;0.80;;;;;;;;;;5066908;28;20405;-60
2023/09/22 13:38:54;;;;;;;2.13;0.60;;;;;;;;;;5072541;28;20048;-60
2023/09/22 13:41:21;;;;;;;1.88;0.50;;;;;;;;;;5053775;28;20365;-60
2023/09/22 13:43:47;;;;;;;2.22;0.50;;;;;;;;;;5072304;28;20037;-60
2023/09/22 13:46:14;;;;;;;4.70;0.80;;;;;;;;;;5072012;28;20090;-60
2023/09/22 13:48:40;;;;;;;2.08;0.57;;;;;;;;;;5070489;28;20048;-60
2023/09/22 13:51:08;;;;;;;1.95;0.77;;;;;;;;;;5072171;28;20052;-60
2023/09/22 13:53:35;;;;;;;2.97;0.80;;;;;;;;;;5071955;28;20044;-60
2023/09/22 13:56:01;;;;;;;2.55;0.70;;;;;;;;;;5070466;28;20492;-60
2023/09/22 13:58:28;;;;;;;1.90;0.50;;;;;;;;;;5071968;28;20071;-60
2023/09/22 14:00:55;;;;;;;1.27;0.60;;;;;;;;;;5071850;28;20110;-60
2023/09/22 14:03:22;;;;;;;2.28;0.47;;;;;;;;;;5048463;28;20091;-60
2023/09/22 14:05:49;;;;;;;1.98;0.70;;;;;;;;;;5069082;28;20139;-60
2023/09/22 14:08:16;;;;;;;5.03;1.02;;;;;;;;;;5071228;28;20420;-60
2023/09/22 14:10:42;;;;;;;2.00;0.60;;;;;;;;;;5071056;28;20052;-60
2023/09/22 14:13:09;;;;;;;4.70;0.85;;;;;;;;;;5070119;28;20040;-60
2023/09/22 14:15:35;;;;;;;2.83;0.88;;;;;;;;;;5064941;28;20123;-60
2023/09/22 14:18:02;;;;;;;1.77;0.43;;;;;;;;;;5071656;28;20435;-60
2023/09/22 14:20:29;;;;;;;3.10;0.70;;;;;;;;;;5071396;28;20412;-60
2023/09/22 14:22:55;;;;;;;3.10;0.80;;;;;;;;;;5070741;28;20048;-60
2023/09/22 14:25:22;;;;;;;3.47;0.88;;;;;;;;;;5069894;28;20475;-60
2023/09/22 14:27:51;;;;;;;3.85;0.63;;;;;;;;;;5070548;28;20458;-60